Terminal Aerodrome Forecast
Issued by NWS

Home | Current Version | Previous Version | Text Only | Print | Product List | Glossary On
Versions: 1 2 3 4 5 6 7 8 9 10 11 12 13 14 15 16 17 18 19 20
000
FTUS42 KTAE 261120
TAFDHN
TAF
KDHN 261120Z 2612/2712 13004KT P6SM BKN040
     FM261400 15009KT P6SM SCT030 BKN050
      TEMPO 2617/2621 VRB15G25KT 3SM TSRA BKN025CB
     FM262100 15007KT 3SM TSRA SCT035CB BKN070
     FM270200 13003KT P6SM FEW015 SCT080 BKN250=

USA.gov is the U.S. government's official web portal to all federal, state and local government web resources and services.